Time;durP1;ratioP1;P1;durP2;ratioP2;P2;SDS_P1;SDS_P2;PMS_P1;PMS_P2;Temp;Humidity;BMP_temperature;BMP_pressure;BME280_temperature;BME280_humidity;BME280_pressure;Samples;Min_cycle;Max_cycle;Signal;HPM_P1;HPM_P2
2021/09/24 00:01:10;;;;;;;7.70;2.88;;;15.20;99.90;;;;;;5053413;28;20040;-78
2021/09/24 00:03:36;;;;;;;5.20;2.55;;;15.20;99.90;;;;;;5053259;28;20484;-78
2021/09/24 00:06:05;;;;;;;10.32;2.80;;;15.20;99.90;;;;;;5052448;28;20037;-78
2021/09/24 00:08:32;;;;;;;6.90;2.85;;;15.20;99.90;;;;;;5053150;28;20500;-78
2021/09/24 00:10:57;;;;;;;7.88;2.95;;;15.20;99.90;;;;;;5053282;28;20029;-78
2021/09/24 00:13:24;;;;;;;5.05;2.55;;;15.20;99.90;;;;;;5052474;28;20028;-79
2021/09/24 00:15:51;;;;;;;8.48;2.65;;;15.20;99.90;;;;;;5052959;28;20027;-78
2021/09/24 00:18:17;;;;;;;4.05;2.70;;;15.20;99.90;;;;;;5052575;28;20029;-79
2021/09/24 00:20:43;;;;;;;5.35;2.30;;;15.20;99.90;;;;;;5052931;28;20354;-77
2021/09/24 00:23:08;;;;;;;6.30;2.80;;;15.20;99.90;;;;;;5052999;28;20029;-78
2021/09/24 00:26:11;;;;;;;6.40;2.80;;;15.20;99.90;;;;;;5052246;28;20090;-77
2021/09/24 00:28:40;;;;;;;7.03;1.95;;;15.20;99.90;;;;;;5052857;28;20040;-79
2021/09/24 00:31:25;;;;;;;10.50;2.65;;;15.20;99.90;;;;;;5053129;28;20025;-78
2021/09/24 00:33:51;;;;;;;7.30;1.88;;;15.30;99.90;;;;;;5052166;28;20373;-78
2021/09/24 00:36:16;;;;;;;6.32;2.67;;;15.30;99.90;;;;;;5052821;28;20381;-79
2021/09/24 00:38:42;;;;;;;7.20;2.53;;;15.30;99.90;;;;;;5052848;28;20031;-79
2021/09/24 00:41:08;;;;;;;11.40;2.58;;;15.30;99.90;;;;;;5051783;28;20072;-78
2021/09/24 00:43:34;;;;;;;5.10;2.20;;;15.40;99.90;;;;;;5052823;28;20480;-78
2021/09/24 00:46:01;;;;;;;9.25;2.25;;;15.40;99.90;;;;;;5052763;28;20077;-77
2021/09/24 00:48:27;;;;;;;5.18;2.40;;;15.50;99.90;;;;;;5051955;28;20414;-79
2021/09/24 00:50:53;;;;;;;4.97;2.33;;;15.50;99.90;;;;;;5052763;28;20056;-79
2021/09/24 00:53:19;;;;;;;11.25;2.63;;;15.50;99.90;;;;;;5052163;28;20056;-79
2021/09/24 00:55:46;;;;;;;5.18;2.67;;;15.50;99.90;;;;;;5052498;28;20029;-78
2021/09/24 00:58:11;;;;;;;6.47;2.22;;;15.50;99.90;;;;;;5052972;28;20098;-78
2021/09/24 01:00:37;;;;;;;4.10;2.40;;;15.60;99.90;;;;;;5052648;28;20472;-80
2021/09/24 01:03:02;;;;;;;17.65;2.75;;;15.60;99.90;;;;;;5056195;28;20051;-78
2021/09/24 01:05:28;;;;;;;7.45;2.63;;;15.60;99.90;;;;;;5066362;28;20059;-78
2021/09/24 01:07:55;;;;;;;5.65;2.70;;;15.60;99.90;;;;;;5064202;28;20108;-79
2021/09/24 01:10:26;;;;;;;6.13;2.30;;;15.60;99.90;;;;;;5056896;28;20119;-79
2021/09/24 01:12:53;;;;;;;9.15;2.78;;;15.60;99.90;;;;;;5056779;28;20025;-78
2021/09/24 01:15:19;;;;;;;6.45;2.13;;;15.70;99.90;;;;;;5056108;28;20071;-78
2021/09/24 01:17:47;;;;;;;10.90;2.13;;;15.70;99.90;;;;;;5057984;28;20032;-78
2021/09/24 01:20:15;;;;;;;10.88;2.78;;;15.70;99.90;;;;;;5059650;28;20473;-78
2021/09/24 01:22:41;;;;;;;5.30;2.53;;;15.70;99.90;;;;;;5056483;28;20052;-80
2021/09/24 01:25:09;;;;;;;8.55;2.33;;;15.70;99.90;;;;;;5056713;28;20033;-79
2021/09/24 01:27:35;;;;;;;10.00;2.92;;;15.70;99.90;;;;;;5056236;28;20062;-80
2021/09/24 01:30:02;;;;;;;5.60;2.80;;;15.70;99.90;;;;;;5055695;28;20036;-79
2021/09/24 01:32:28;;;;;;;6.32;2.92;;;15.80;99.90;;;;;;5055977;28;20100;-80
2021/09/24 01:34:53;;;;;;;4.75;3.10;;;15.80;99.90;;;;;;5056229;28;20112;-79
2021/09/24 01:37:22;;;;;;;6.40;3.58;;;15.80;99.90;;;;;;5055250;28;20056;-78
2021/09/24 01:39:47;;;;;;;6.82;4.22;;;15.80;99.90;;;;;;5056220;28;20432;-78
2021/09/24 01:42:13;;;;;;;6.80;3.63;;;15.80;99.90;;;;;;5055750;28;20053;-79
2021/09/24 01:44:38;;;;;;;8.50;4.15;;;15.70;99.90;;;;;;5055058;28;20068;-79
2021/09/24 01:47:04;;;;;;;7.72;4.70;;;15.70;99.90;;;;;;5055832;28;20028;-79
2021/09/24 01:49:30;;;;;;;8.63;4.68;;;15.70;99.90;;;;;;5055821;28;20033;-79
2021/09/24 01:51:56;;;;;;;7.75;5.38;;;15.60;99.90;;;;;;5055120;28;20071;-79
2021/09/24 01:54:22;;;;;;;12.07;7.53;;;15.50;99.90;;;;;;5056037;28;20485;-79
2021/09/24 01:56:48;;;;;;;11.43;7.43;;;15.50;99.90;;;;;;5055006;28;20032;-78
2021/09/24 01:59:13;;;;;;;14.65;9.23;;;15.50;99.90;;;;;;5055536;28;20432;-79
2021/09/24 02:01:39;;;;;;;19.13;9.85;;;15.40;99.90;;;;;;5055515;28;20061;-78
2021/09/24 02:04:07;;;;;;;13.65;8.68;;;15.30;99.90;;;;;;5054842;28;20029;-79
2021/09/24 02:06:33;;;;;;;12.90;8.80;;;15.20;99.90;;;;;;5055305;28;20039;-78
2021/09/24 02:08:58;;;;;;;15.15;10.05;;;15.20;99.90;;;;;;5055731;28;20840;-78
2021/09/24 02:11:24;;;;;;;12.75;9.82;;;15.20;99.90;;;;;;5054843;28;20489;-78
2021/09/24 02:13:49;;;;;;;18.13;10.90;;;15.10;99.90;;;;;;5055406;28;20496;-78
2021/09/24 02:16:15;;;;;;;13.65;9.65;;;15.10;99.90;;;;;;5055606;28;20029;-78
2021/09/24 02:18:41;;;;;;;15.35;11.20;;;15.00;99.90;;;;;;5054296;28;20103;-77
2021/09/24 02:21:07;;;;;;;19.58;12.45;;;15.00;99.90;;;;;;5055001;28;20033;-79
2021/09/24 02:23:37;;;;;;;21.65;12.30;;;15.00;99.90;;;;;;5055354;28;20016;-78
2021/09/24 02:26:03;;;;;;;26.70;14.68;;;14.90;99.90;;;;;;5054498;28;20112;-78
2021/09/24 02:28:30;;;;;;;22.90;14.73;;;14.90;99.90;;;;;;5055308;28;20091;-77
2021/09/24 02:30:55;;;;;;;28.70;17.25;;;14.90;99.90;;;;;;5055025;28;20477;-78
2021/09/24 02:33:21;;;;;;;22.75;16.60;;;14.90;99.90;;;;;;5054356;28;20037;-79
2021/09/24 02:35:47;;;;;;;29.45;17.33;;;14.90;99.90;;;;;;5054898;28;20025;-78
2021/09/24 02:38:12;;;;;;;28.10;18.05;;;14.90;99.90;;;;;;5054993;28;20040;-78
2021/09/24 02:40:38;;;;;;;29.05;18.13;;;14.90;99.90;;;;;;5054104;28;20405;-78
2021/09/24 02:43:04;;;;;;;33.03;20.67;;;14.80;99.90;;;;;;5055010;28;20049;-78
2021/09/24 02:45:32;;;;;;;38.15;22.20;;;14.80;99.90;;;;;;5054936;28;20060;-78
2021/09/24 02:47:58;;;;;;;29.33;20.83;;;14.80;99.90;;;;;;5054205;28;20059;-79
2021/09/24 02:50:23;;;;;;;31.33;20.95;;;14.80;99.90;;;;;;5054641;28;20056;-79
2021/09/24 02:52:49;;;;;;;35.85;22.77;;;14.80;99.90;;;;;;5054759;28;20021;-78
2021/09/24 02:55:15;;;;;;;39.45;26.90;;;14.80;99.90;;;;;;5053922;28;20036;-80
2021/09/24 02:57:41;;;;;;;41.92;26.48;;;14.80;99.90;;;;;;5054638;28;20380;-79
2021/09/24 03:00:08;;;;;;;41.63;26.55;;;14.90;99.90;;;;;;5053884;28;20029;-78
2021/09/24 03:02:35;;;;;;;52.45;29.15;;;14.90;99.90;;;;;;5054447;28;20025;-79
2021/09/24 03:05:05;;;;;;;53.05;27.05;;;15.00;99.90;;;;;;5054576;28;20147;-79
2021/09/24 03:07:30;;;;;;;58.05;30.85;;;15.00;99.90;;;;;;5053575;28;20021;-78
2021/09/24 03:09:56;;;;;;;60.63;32.47;;;15.10;99.90;;;;;;5054546;28;20041;-79
2021/09/24 03:12:21;;;;;;;62.70;32.10;;;15.20;99.90;;;;;;5054403;28;20480;-77
2021/09/24 03:14:47;;;;;;;63.60;34.50;;;15.20;99.90;;;;;;5053553;28;20469;-79
2021/09/24 03:17:12;;;;;;;67.10;35.53;;;15.30;99.90;;;;;;5054115;28;20025;-79
2021/09/24 03:19:38;;;;;;;60.95;32.05;;;15.30;99.90;;;;;;5054465;28;20108;-77
2021/09/24 03:22:04;;;;;;;65.80;34.63;;;15.30;99.90;;;;;;5053637;28;20143;-78
2021/09/24 03:24:29;;;;;;;59.05;35.08;;;15.40;99.90;;;;;;5054143;28;20053;-79
2021/09/24 03:26:55;;;;;;;68.78;34.88;;;15.40;99.90;;;;;;5054105;28;20083;-78
2021/09/24 03:29:21;;;;;;;73.10;37.55;;;15.40;99.90;;;;;;5053506;28;20017;-78
2021/09/24 03:31:46;;;;;;;71.63;37.08;;;15.40;99.90;;;;;;5053319;28;20036;-76
2021/09/24 03:34:12;;;;;;;66.68;36.83;;;15.50;99.90;;;;;;5055445;28;20021;-79
2021/09/24 03:36:38;;;;;;;73.90;37.95;;;15.50;99.90;;;;;;5053421;28;20032;-78
2021/09/24 03:39:11;;;;;;;69.45;38.38;;;15.60;99.90;;;;;;5053932;28;20421;-77
2021/09/24 03:41:38;;;;;;;73.07;37.47;;;15.60;99.90;;;;;;5053539;28;20044;-78
2021/09/24 03:44:04;;;;;;;75.60;37.35;;;15.70;99.90;;;;;;5053426;28;20494;-77
2021/09/24 03:46:29;;;;;;;71.00;35.83;;;15.70;99.90;;;;;;5053824;28;20091;-78
2021/09/24 03:48:55;;;;;;;70.88;34.33;;;15.70;99.90;;;;;;5053572;28;20376;-77
2021/09/24 03:51:21;;;;;;;84.35;38.40;;;15.80;99.90;;;;;;5053061;28;20032;-77
2021/09/24 03:53:46;;;;;;;72.45;37.03;;;15.80;99.90;;;;;;5053636;28;20025;-78
2021/09/24 03:56:12;;;;;;;68.90;37.85;;;15.80;99.90;;;;;;5052861;28;20394;-77
2021/09/24 03:58:37;;;;;;;68.82;35.88;;;15.80;99.90;;;;;;5053524;28;20029;-77
2021/09/24 04:01:03;;;;;;;66.13;33.30;;;15.80;99.90;;;;;;5053246;28;20025;-77
2021/09/24 04:03:28;;;;;;;68.22;35.53;;;15.90;99.90;;;;;;5052640;28;20017;-78
2021/09/24 04:05:54;;;;;;;60.78;34.58;;;15.90;99.90;;;;;;5053418;28;20075;-78
2021/09/24 04:08:20;;;;;;;61.17;33.85;;;15.90;99.90;;;;;;5053465;28;20432;-78
2021/09/24 04:10:46;;;;;;;62.13;35.20;;;15.90;99.90;;;;;;5052542;28;20496;-77
2021/09/24 04:13:14;;;;;;;67.10;36.30;;;15.90;99.90;;;;;;5053351;28;20025;-78
2021/09/24 04:15:40;;;;;;;75.45;34.90;;;16.00;99.90;;;;;;5053112;28;20021;-77
2021/09/24 04:18:06;;;;;;;64.90;34.90;;;16.00;99.90;;;;;;5053277;28;20082;-76
2021/09/24 04:20:31;;;;;;;75.50;35.08;;;16.00;99.90;;;;;;5053660;28;20420;-76
2021/09/24 04:22:57;;;;;;;63.60;35.40;;;16.00;99.90;;;;;;5053074;28;20473;-77
2021/09/24 04:25:23;;;;;;;67.82;36.90;;;16.00;99.90;;;;;;5052298;28;20037;-77
2021/09/24 04:27:48;;;;;;;76.30;38.40;;;16.00;99.90;;;;;;5052996;28;20021;-78
2021/09/24 04:30:14;;;;;;;82.97;36.65;;;16.00;99.90;;;;;;5052928;28;20083;-77
2021/09/24 04:32:39;;;;;;;73.20;37.92;;;16.10;99.90;;;;;;5052592;28;20590;-77
2021/09/24 04:35:05;;;;;;;87.00;38.65;;;16.10;99.90;;;;;;5053833;28;20044;-77
2021/09/24 04:37:31;;;;;;;81.65;36.17;;;16.10;99.90;;;;;;5053211;28;20029;-78
2021/09/24 04:39:57;;;;;;;82.72;37.60;;;16.20;99.90;;;;;;5052057;28;20028;-77
2021/09/24 04:42:22;;;;;;;74.05;35.13;;;16.20;99.90;;;;;;5052538;28;20419;-79
2021/09/24 04:44:48;;;;;;;70.20;34.38;;;16.20;99.90;;;;;;5052674;28;20496;-79
2021/09/24 04:47:14;;;;;;;75.28;32.67;;;16.20;99.90;;;;;;5052291;28;20032;-77
2021/09/24 04:49:39;;;;;;;78.82;32.92;;;16.20;99.90;;;;;;5052930;28;20495;-77
2021/09/24 04:52:05;;;;;;;68.60;33.75;;;16.30;99.90;;;;;;5052788;28;20036;-77
2021/09/24 04:54:31;;;;;;;65.72;32.83;;;16.20;99.90;;;;;;5051715;28;20124;-78
2021/09/24 04:56:57;;;;;;;65.63;31.33;;;16.30;99.90;;;;;;5052507;28;20028;-78
2021/09/24 04:59:22;;;;;;;68.68;33.22;;;16.30;99.90;;;;;;5053248;28;20032;-78
2021/09/24 05:01:48;;;;;;;61.72;31.30;;;16.30;99.90;;;;;;5053485;28;20025;-77
2021/09/24 05:04:13;;;;;;;59.50;31.00;;;16.30;99.90;;;;;;5052910;28;20043;-77
2021/09/24 05:06:39;;;;;;;72.97;33.40;;;16.30;99.90;;;;;;5051754;28;20041;-78
2021/09/24 05:09:04;;;;;;;78.45;35.88;;;16.30;99.90;;;;;;5052624;28;20033;-78
2021/09/24 05:11:30;;;;;;;76.97;33.97;;;16.30;99.90;;;;;;5052812;28;20025;-78
2021/09/24 05:13:56;;;;;;;79.40;35.30;;;16.30;99.90;;;;;;5051751;28;20469;-79
2021/09/24 05:16:21;;;;;;;71.00;34.17;;;16.30;99.90;;;;;;5052476;28;20029;-78
2021/09/24 05:18:47;;;;;;;71.35;32.90;;;16.30;99.90;;;;;;5052846;28;20021;-77
2021/09/24 05:21:12;;;;;;;75.70;34.15;;;16.30;99.90;;;;;;5052155;28;20025;-78
2021/09/24 05:23:39;;;;;;;63.78;33.53;;;16.20;99.90;;;;;;5052487;28;20021;-79
2021/09/24 05:26:05;;;;;;;71.65;33.20;;;16.20;99.90;;;;;;5052993;28;20037;-78
2021/09/24 05:28:31;;;;;;;68.75;33.83;;;16.20;99.90;;;;;;5052139;28;20028;-79
2021/09/24 05:30:56;;;;;;;64.30;34.40;;;16.30;99.90;;;;;;5053127;28;20040;-78
2021/09/24 05:33:22;;;;;;;86.95;35.28;;;16.20;99.90;;;;;;5052656;28;20025;-78
2021/09/24 05:35:48;;;;;;;77.10;36.60;;;16.30;99.90;;;;;;5051922;28;20468;-77
2021/09/24 05:38:13;;;;;;;77.20;36.17;;;16.30;99.90;;;;;;5053726;28;20029;-78
2021/09/24 05:40:39;;;;;;;82.25;35.08;;;16.30;99.90;;;;;;5052035;28;20057;-78
2021/09/24 05:43:05;;;;;;;86.05;35.15;;;16.30;99.90;;;;;;5051406;28;20029;-79
2021/09/24 05:45:33;;;;;;;79.15;35.33;;;16.30;99.90;;;;;;5052349;28;20043;-78
2021/09/24 05:47:59;;;;;;;80.75;36.15;;;16.30;99.90;;;;;;5052142;28;20108;-79
2021/09/24 05:50:26;;;;;;;74.28;34.28;;;16.30;99.90;;;;;;5051524;28;20112;-77
2021/09/24 05:52:53;;;;;;;68.88;35.03;;;16.40;99.90;;;;;;5052353;28;20028;-77
2021/09/24 05:55:22;;;;;;;76.00;35.20;;;16.30;99.90;;;;;;5054783;28;20067;-76
2021/09/24 05:57:49;;;;;;;73.78;36.08;;;16.40;99.90;;;;;;5055619;28;20020;-78
2021/09/24 06:00:17;;;;;;;92.13;35.65;;;16.40;99.90;;;;;;5058538;28;20067;-78
2021/09/24 06:02:45;;;;;;;78.82;35.38;;;16.40;99.90;;;;;;5055672;28;20488;-77
2021/09/24 06:05:11;;;;;;;68.65;33.47;;;16.40;99.90;;;;;;5055185;28;20070;-77
2021/09/24 06:07:37;;;;;;;64.30;35.35;;;16.40;99.90;;;;;;5055449;28;20484;-77
2021/09/24 06:10:04;;;;;;;85.78;36.75;;;16.40;99.90;;;;;;5054868;28;20484;-79
2021/09/24 06:12:29;;;;;;;77.18;35.17;;;16.40;99.90;;;;;;5056691;28;20550;-77
2021/09/24 06:14:57;;;;;;;65.47;34.20;;;16.40;99.90;;;;;;5055423;28;20075;-77
2021/09/24 06:17:23;;;;;;;69.68;34.78;;;16.40;99.90;;;;;;5054862;28;20059;-77
2021/09/24 06:19:49;;;;;;;71.60;35.10;;;16.90;99.90;;;;;;5055369;28;20029;-78
2021/09/24 06:22:15;;;;;;;73.95;35.22;;;16.50;99.90;;;;;;5055326;28;20025;-79
2021/09/24 06:24:44;;;;;;;75.75;35.97;;;16.50;99.90;;;;;;5054707;28;20051;-79
2021/09/24 06:27:14;;;;;;;72.25;33.22;;;16.50;99.90;;;;;;5055069;28;20739;-78
2021/09/24 06:29:45;;;;;;;61.97;33.42;;;16.60;99.90;;;;;;5055799;28;20033;-78
2021/09/24 06:32:12;;;;;;;65.15;32.85;;;16.60;99.90;;;;;;5054529;28;20033;-78
2021/09/24 06:34:38;;;;;;;56.80;31.67;;;16.60;99.90;;;;;;5055586;28;20041;-79
2021/09/24 06:37:04;;;;;;;70.53;31.77;;;16.70;99.90;;;;;;5055247;28;20071;-77
2021/09/24 06:39:30;;;;;;;63.03;31.55;;;16.70;99.90;;;;;;5054249;28;20433;-78
2021/09/24 06:41:56;;;;;;;56.78;31.58;;;16.70;99.90;;;;;;5054832;28;20045;-78
2021/09/24 06:44:22;;;;;;;58.63;31.50;;;16.70;99.90;;;;;;5055006;28;20017;-79
2021/09/24 06:46:47;;;;;;;59.92;28.60;;;16.80;99.90;;;;;;5055491;28;20049;-78
2021/09/24 06:49:13;;;;;;;63.08;31.58;;;16.80;99.90;;;;;;5056424;28;20029;-76
2021/09/24 06:51:39;;;;;;;47.38;29.30;;;16.80;99.90;;;;;;5055720;28;20067;-78
2021/09/24 06:54:05;;;;;;;58.92;30.05;;;16.80;99.90;;;;;;5055014;28;20048;-78
2021/09/24 06:56:31;;;;;;;49.75;27.92;;;16.80;99.90;;;;;;5055584;28;20036;-77
2021/09/24 06:58:59;;;;;;;51.53;27.02;;;16.90;99.90;;;;;;5055479;28;20022;-78
2021/09/24 07:01:24;;;;;;;43.40;27.92;;;16.90;99.90;;;;;;5055509;28;20033;-78
2021/09/24 07:03:50;;;;;;;56.38;28.00;;;16.90;99.90;;;;;;5057498;28;20060;-79
2021/09/24 07:06:17;;;;;;;49.15;24.45;;;17.00;99.90;;;;;;5056340;28;20039;-77
2021/09/24 07:08:42;;;;;;;40.38;25.90;;;17.00;99.90;;;;;;5058115;28;20057;-78
2021/09/24 07:11:08;;;;;;;45.20;24.65;;;17.10;99.90;;;;;;5057498;28;20040;-77
2021/09/24 07:13:34;;;;;;;42.22;24.60;;;17.10;99.90;;;;;;5057033;28;20017;-78
2021/09/24 07:16:02;;;;;;;41.35;25.73;;;17.10;99.90;;;;;;5057281;28;20025;-78
2021/09/24 07:18:28;;;;;;;35.95;23.40;;;17.20;99.90;;;;;;5056644;28;20025;-80
2021/09/24 07:20:54;;;;;;;38.17;24.88;;;17.20;99.90;;;;;;5055537;28;20542;-78
2021/09/24 07:23:20;;;;;;;38.25;24.23;;;17.30;99.90;;;;;;5055643;28;20021;-77
2021/09/24 07:25:46;;;;;;;43.28;22.65;;;17.30;99.90;;;;;;5055306;28;20102;-79
2021/09/24 07:28:12;;;;;;;32.35;22.73;;;17.40;99.90;;;;;;5055273;28;20100;-78
2021/09/24 07:30:37;;;;;;;36.70;23.75;;;17.40;99.90;;;;;;5055202;28;20515;-78
2021/09/24 07:33:03;;;;;;;37.47;23.73;;;17.40;99.90;;;;;;5056408;28;20148;-78
2021/09/24 07:35:29;;;;;;;41.13;23.95;;;17.50;99.90;;;;;;5055161;28;20095;-77
2021/09/24 07:37:54;;;;;;;31.48;21.55;;;17.60;99.90;;;;;;5055652;28;20343;-79
2021/09/24 07:40:20;;;;;;;28.70;20.48;;;17.70;99.90;;;;;;5055346;28;20103;-79
2021/09/24 07:42:45;;;;;;;37.13;21.55;;;17.70;99.90;;;;;;5054285;28;20380;-78
2021/09/24 07:45:11;;;;;;;36.53;20.95;;;17.80;99.90;;;;;;5054698;28;20041;-76
2021/09/24 07:47:36;;;;;;;25.73;19.70;;;17.90;99.90;;;;;;5054686;28;20027;-77
2021/09/24 07:50:03;;;;;;;34.53;20.65;;;17.90;99.90;;;;;;5055287;28;20440;-78
2021/09/24 07:52:30;;;;;;;31.55;20.55;;;17.90;99.90;;;;;;5056467;28;20025;-78
2021/09/24 07:54:57;;;;;;;27.35;17.85;;;18.00;99.90;;;;;;5055360;28;20024;-78
2021/09/24 07:57:22;;;;;;;25.73;18.48;;;18.10;99.90;;;;;;5054472;28;20047;-77
2021/09/24 07:59:48;;;;;;;24.95;18.65;;;18.20;99.90;;;;;;5055453;28;20096;-79
2021/09/24 08:02:13;;;;;;;35.97;18.23;;;18.20;99.90;;;;;;5054690;28;20362;-79
2021/09/24 08:04:39;;;;;;;22.88;16.42;;;18.30;99.90;;;;;;5053965;28;20057;-78
2021/09/24 08:07:06;;;;;;;22.48;16.40;;;18.40;99.90;;;;;;5055375;28;20048;-80
2021/09/24 08:09:32;;;;;;;25.83;16.10;;;18.50;99.90;;;;;;5054861;28;20036;-78
2021/09/24 08:11:58;;;;;;;25.08;15.45;;;18.50;99.90;;;;;;5055065;28;20017;-78
2021/09/24 08:14:23;;;;;;;17.83;14.13;;;18.60;99.90;;;;;;5056136;28;20128;-79
2021/09/24 08:16:49;;;;;;;21.90;15.32;;;18.60;99.90;;;;;;5055847;28;20025;-78
2021/09/24 08:19:20;;;;;;;20.02;13.75;;;18.60;99.90;;;;;;5057816;28;20572;-79
2021/09/24 08:21:45;;;;;;;18.05;14.38;;;18.70;99.90;;;;;;5057597;28;20036;-78
2021/09/24 08:24:11;;;;;;;20.88;13.73;;;18.70;99.90;;;;;;5057022;28;20029;-78
2021/09/24 08:26:36;;;;;;;20.00;13.27;;;18.80;99.90;;;;;;5057934;28;20037;-78
2021/09/24 08:29:02;;;;;;;17.83;13.70;;;18.80;99.90;;;;;;5056692;28;20025;-78
2021/09/24 08:31:29;;;;;;;18.35;12.93;;;18.90;99.90;;;;;;5053673;28;20074;-78
2021/09/24 08:33:57;;;;;;;17.42;13.82;;;18.90;99.90;;;;;;5054271;28;20055;-76
2021/09/24 08:36:23;;;;;;;19.75;13.55;;;18.90;99.90;;;;;;5056169;28;20039;-78
2021/09/24 08:38:49;;;;;;;21.40;12.93;;;19.00;99.90;;;;;;5054595;28;20025;-76
2021/09/24 08:41:15;;;;;;;14.52;12.43;;;19.10;99.90;;;;;;5053891;28;20215;-77
2021/09/24 08:43:41;;;;;;;16.20;13.52;;;19.10;99.90;;;;;;5054265;28;20034;-77
2021/09/24 08:46:07;;;;;;;16.88;12.20;;;19.10;99.90;;;;;;5052020;28;20038;-78
2021/09/24 08:48:34;;;;;;;16.88;12.48;;;19.20;99.90;;;;;;5052740;28;20056;-78
2021/09/24 08:51:00;;;;;;;21.50;12.23;;;19.20;99.90;;;;;;5057629;28;20048;-77
2021/09/24 08:53:26;;;;;;;15.00;10.43;;;19.30;99.90;;;;;;5071841;28;20032;-78
2021/09/24 08:55:52;;;;;;;17.77;11.90;;;19.40;99.90;;;;;;5072779;28;20029;-77
2021/09/24 08:58:19;;;;;;;18.52;10.93;;;19.50;99.90;;;;;;5072490;28;20035;-77
2021/09/24 09:00:45;;;;;;;13.00;11.55;;;19.50;99.90;;;;;;5071698;28;20025;-77
2021/09/24 09:03:18;;;;;;;13.82;11.23;;;19.70;99.90;;;;;;5073186;28;20032;-78
2021/09/24 09:05:52;;;;;;;13.52;9.52;;;19.70;99.90;;;;;;5072348;28;20040;-78
2021/09/24 09:08:30;;;;;;;17.38;11.13;;;19.70;99.90;;;;;;5072810;28;20472;-78
2021/09/24 09:11:00;;;;;;;11.50;10.02;;;19.80;99.90;;;;;;5073013;28;20104;-78
2021/09/24 09:13:40;;;;;;;17.70;9.63;;;19.70;99.90;;;;;;5071872;28;20028;-77
2021/09/24 09:16:15;;;;;;;12.17;9.43;;;19.80;99.90;;;;;;5072741;28;20039;-76
2021/09/24 09:18:42;;;;;;;12.05;8.77;;;19.70;99.90;;;;;;5072820;28;20150;-78
2021/09/24 09:21:11;;;;;;;10.50;9.45;;;19.80;99.90;;;;;;5071865;28;20055;-79
2021/09/24 09:23:40;;;;;;;10.45;9.23;;;19.70;99.90;;;;;;5072485;28;20017;-78
2021/09/24 09:26:09;;;;;;;16.95;10.43;;;19.80;99.90;;;;;;5072709;28;20085;-77
2021/09/24 09:28:40;;;;;;;11.85;9.77;;;19.80;99.90;;;;;;5072239;28;20114;-78
2021/09/24 09:31:25;;;;;;;12.65;10.30;;;19.80;99.90;;;;;;5075997;28;20473;-77
2021/09/24 09:33:59;;;;;;;14.30;10.18;;;19.90;99.90;;;;;;5075643;28;20029;-77
2021/09/24 09:36:29;;;;;;;12.13;10.07;;;19.90;99.90;;;;;;5062762;28;20138;-76
2021/09/24 09:38:56;;;;;;;14.80;9.13;;;20.00;99.90;;;;;;5057025;28;20112;-77
2021/09/24 09:41:23;;;;;;;11.68;9.73;;;20.00;99.90;;;;;;5053899;28;20527;-77
2021/09/24 09:43:53;;;;;;;14.07;10.15;;;20.20;99.90;;;;;;5054690;28;20029;-78
2021/09/24 09:46:23;;;;;;;11.05;8.50;;;20.80;99.90;;;;;;5056234;28;20083;-77
2021/09/24 09:49:06;;;;;;;18.30;9.82;;;20.00;99.90;;;;;;5055349;28;20055;-78
2021/09/24 09:51:33;;;;;;;11.43;9.30;;;20.00;99.90;;;;;;5056143;28;20392;-78
2021/09/24 09:53:58;;;;;;;13.02;9.32;;;20.00;99.90;;;;;;5056660;28;20036;-79
2021/09/24 09:56:41;;;;;;;13.15;10.05;;;20.00;99.90;;;;;;5055776;28;20032;-79
2021/09/24 09:59:30;;;;;;;14.95;10.40;;;20.00;99.90;;;;;;5055904;28;20033;-77
2021/09/24 10:02:11;;;;;;;15.38;10.77;;;20.00;99.90;;;;;;5055228;28;20028;-78
2021/09/24 10:04:41;;;;;;;11.95;10.52;;;20.00;99.90;;;;;;5055805;28;20029;-77
2021/09/24 10:07:14;;;;;;;;;;;20.10;99.90;;;;;;5056228;28;20120;-77
2021/09/24 10:09:41;;;;;;;15.02;11.00;;;20.20;99.90;;;;;;5054829;28;20356;-78
2021/09/24 10:12:24;;;;;;;12.85;10.43;;;20.20;99.90;;;;;;5055908;28;20031;-77
2021/09/24 10:14:51;;;;;;;9.88;8.85;;;20.20;99.90;;;;;;5055799;28;20017;-78
2021/09/24 10:17:19;;;;;;;10.75;9.55;;;20.10;99.90;;;;;;5054831;28;20025;-79
2021/09/24 10:19:46;;;;;;;13.77;9.20;;;20.20;99.90;;;;;;5052398;28;20068;-77
2021/09/24 10:22:12;;;;;;;13.57;10.45;;;20.20;99.90;;;;;;5054593;28;20108;-78
2021/09/24 10:24:41;;;;;;;13.13;9.60;;;20.40;99.90;;;;;;5052384;28;20060;-76
2021/09/24 10:27:23;;;;;;;15.55;9.98;;;20.60;99.90;;;;;;5055029;28;20036;-78
2021/09/24 10:29:50;;;;;;;12.73;10.50;;;20.60;99.90;;;;;;5054237;28;20075;-76
2021/09/24 10:32:17;;;;;;;17.73;11.80;;;20.70;99.90;;;;;;5054539;28;20063;-76
2021/09/24 10:35:08;;;;;;;12.25;11.00;;;20.80;99.90;;;;;;5054972;28;20051;-76
2021/09/24 10:37:39;;;;;;;12.25;11.02;;;20.90;99.90;;;;;;5054469;28;20113;-77
2021/09/24 10:40:26;;;;;;;16.05;11.23;;;21.00;99.90;;;;;;5054869;28;20385;-77
2021/09/24 10:43:01;;;;;;;14.13;11.27;;;21.00;99.90;;;;;;5056015;28;20025;-77
2021/09/24 10:45:30;;;;;;;14.93;11.40;;;21.10;99.90;;;;;;5055469;28;20037;-78
2021/09/24 10:48:16;;;;;;;15.95;11.40;;;21.30;99.90;;;;;;5056703;28;20497;-77
2021/09/24 10:50:45;;;;;;;16.50;11.25;;;21.20;99.90;;;;;;5063042;28;20029;-77
2021/09/24 10:53:11;;;;;;;15.65;10.82;;;21.20;99.90;;;;;;5056890;28;20532;-78
2021/09/24 10:55:38;;;;;;;16.02;11.35;;;21.20;99.90;;;;;;5056547;28;20059;-77
2021/09/24 10:58:03;;;;;;;21.10;9.90;;;21.20;99.90;;;;;;5056445;28;20021;-77
2021/09/24 11:00:31;;;;;;;16.80;9.57;;;21.20;99.90;;;;;;5054319;28;20051;-76
2021/09/24 11:03:14;;;;;;;11.82;9.95;;;21.20;99.90;;;;;;5055299;28;20424;-77
2021/09/24 11:06:03;;;;;;;18.73;10.48;;;21.20;99.90;;;;;;5054447;28;20044;-77
2021/09/24 11:08:38;;;;;;;13.75;10.05;;;21.20;99.90;;;;;;5055192;28;20029;-76
2021/09/24 11:11:31;;;;;;;15.10;11.43;;;21.30;99.90;;;;;;5054694;28;20027;-77
2021/09/24 11:14:02;;;;;;;12.95;8.88;;;21.30;99.90;;;;;;5052444;28;20025;-78
2021/09/24 11:16:44;;;;;;;11.63;8.40;;;21.40;99.90;;;;;;5054239;28;20108;-78
2021/09/24 11:19:36;;;;;;;9.32;8.48;;;21.50;99.90;;;;;;5054473;28;20108;-77
2021/09/24 11:22:13;;;;;;;9.15;7.82;;;21.60;99.90;;;;;;5054248;28;20048;-75
2021/09/24 11:24:56;;;;;;;11.32;7.95;;;21.50;99.90;;;;;;5054661;28;20028;-77
2021/09/24 11:27:32;;;;;;;9.15;7.47;;;21.40;99.90;;;;;;5053904;28;20104;-78
2021/09/24 11:30:04;;;;;;;24.25;10.40;;;21.40;99.90;;;;;;5054477;28;20025;-78
2021/09/24 11:32:37;;;;;;;12.48;7.50;;;21.30;99.90;;;;;;5054421;28;20503;-78
2021/09/24 11:35:04;;;;;;;12.00;8.38;;;21.30;99.90;;;;;;5053126;28;20060;-77
2021/09/24 11:37:32;;;;;;;10.10;9.05;;;21.40;99.90;;;;;;5054237;28;20035;-78
2021/09/24 11:40:18;;;;;;;19.30;10.77;;;21.40;99.90;;;;;;5053940;28;20040;-76
2021/09/24 11:42:49;;;;;;;11.30;9.13;;;21.50;99.90;;;;;;5052612;28;20051;-77
2021/09/24 11:45:18;;;;;;;12.57;8.55;;;21.40;99.90;;;;;;5053417;28;20051;-77
2021/09/24 11:47:45;;;;;;;14.25;8.40;;;21.30;99.90;;;;;;5052928;28;20079;-76
2021/09/24 11:50:16;;;;;;;12.85;7.38;;;21.30;99.90;;;;;;5054010;28;20037;-76
2021/09/24 11:52:49;;;;;;;7.72;5.95;;;21.30;99.90;;;;;;5052845;28;20045;-76
2021/09/24 11:55:14;;;;;;;8.70;4.80;;;21.30;99.90;;;;;;5052999;28;20079;-78
2021/09/24 11:57:41;;;;;;;8.73;5.55;;;21.40;99.90;;;;;;5053208;28;20021;-76
2021/09/24 12:00:08;;;;;;;8.70;4.82;;;21.50;99.90;;;;;;5053511;28;20499;-76
2021/09/24 12:02:34;;;;;;;11.05;3.22;;;21.60;99.90;;;;;;5052717;28;20543;-77
2021/09/24 12:05:03;;;;;;;4.35;3.20;;;21.70;99.90;;;;;;5053447;28;20056;-76
2021/09/24 12:07:29;;;;;;;7.20;2.80;;;21.80;99.90;;;;;;5053477;28;20028;-77
2021/09/24 12:10:00;;;;;;;7.22;2.95;;;21.90;99.90;;;;;;5052756;28;20044;-78
2021/09/24 12:12:27;;;;;;;9.80;2.85;;;21.90;99.90;;;;;;5053424;28;20033;-77
2021/09/24 12:14:54;;;;;;;4.93;2.40;;;22.00;99.90;;;;;;5052009;28;20055;-77
2021/09/24 12:17:23;;;;;;;7.10;1.95;;;22.00;99.90;;;;;;5052630;28;20078;-76
2021/09/24 12:19:48;;;;;;;2.03;1.55;;;21.90;99.90;;;;;;5051872;28;20021;-76
2021/09/24 12:22:16;;;;;;;2.80;1.55;;;21.80;99.90;;;;;;5053219;28;20036;-76
2021/09/24 12:24:45;;;;;;;4.18;1.67;;;21.80;99.90;;;;;;5052561;28;20032;-77
2021/09/24 12:27:14;;;;;;;4.00;1.20;;;21.70;99.90;;;;;;5052906;28;20485;-77
2021/09/24 12:29:42;;;;;;;2.95;1.40;;;21.90;99.90;;;;;;5052263;28;20029;-77
2021/09/24 12:32:12;;;;;;;2.05;1.10;;;21.90;99.90;;;;;;5053173;28;20025;-78
2021/09/24 12:34:42;;;;;;;;;;;22.10;99.90;;;;;;5053370;28;20032;-77
2021/09/24 12:37:08;;;;;;;1.98;1.02;;;22.00;99.90;;;;;;5052358;28;19936;-77